sensor_id;sensor_type;location;lat;lon;timestamp;P1;durP1;ratioP1;P2;durP2;ratioP2
11518;SDS011;5816;48.228;14.116;2023-06-14T05:02:55;15.07;;;14.17;;
11518;SDS011;5816;48.228;14.116;2023-06-14T05:07:58;16.17;;;14.80;;
11518;SDS011;5816;48.228;14.116;2023-06-14T05:13:00;16.47;;;15.20;;
11518;SDS011;5816;48.228;14.116;2023-06-14T05:18:02;16.47;;;15.30;;
11518;SDS011;5816;48.228;14.116;2023-06-14T05:23:04;16.90;;;15.67;;
11518;SDS011;5816;48.228;14.116;2023-06-14T05:28:06;18.10;;;16.63;;
11518;SDS011;5816;48.228;14.116;2023-06-14T05:33:08;17.17;;;15.83;;
11518;SDS011;5816;48.228;14.116;2023-06-14T05:38:10;17.43;;;16.23;;
11518;SDS011;5816;48.228;14.116;2023-06-14T05:43:12;17.83;;;16.47;;
11518;SDS011;5816;48.228;14.116;2023-06-14T05:48:14;17.03;;;15.67;;
11518;SDS011;5816;48.228;14.116;2023-06-14T05:53:16;16.47;;;15.17;;
11518;SDS011;5816;48.228;14.116;2023-06-14T05:58:17;20.53;;;16.47;;
11518;SDS011;5816;48.228;14.116;2023-06-14T06:03:19;16.53;;;15.00;;
11518;SDS011;5816;48.228;14.116;2023-06-14T06:08:22;16.77;;;15.47;;
11518;SDS011;5816;48.228;14.116;2023-06-14T06:13:24;16.30;;;15.10;;
11518;SDS011;5816;48.228;14.116;2023-06-14T06:18:26;15.00;;;14.10;;
11518;SDS011;5816;48.228;14.116;2023-06-14T06:23:27;16.53;;;15.23;;
11518;SDS011;5816;48.228;14.116;2023-06-14T06:28:29;15.63;;;14.63;;
11518;SDS011;5816;48.228;14.116;2023-06-14T06:33:31;16.00;;;14.60;;
11518;SDS011;5816;48.228;14.116;2023-06-14T06:38:33;16.40;;;15.27;;
11518;SDS011;5816;48.228;14.116;2023-06-14T06:43:35;16.13;;;15.03;;
11518;SDS011;5816;48.228;14.116;2023-06-14T06:48:36;15.93;;;14.73;;
11518;SDS011;5816;48.228;14.116;2023-06-14T06:53:38;16.00;;;14.80;;
11518;SDS011;5816;48.228;14.116;2023-06-14T06:58:48;16.33;;;15.20;;
11518;SDS011;5816;48.228;14.116;2023-06-14T07:03:51;16.07;;;14.97;;
11518;SDS011;5816;48.228;14.116;2023-06-14T07:08:54;15.73;;;14.73;;
11518;SDS011;5816;48.228;14.116;2023-06-14T07:13:56;15.30;;;14.30;;
11518;SDS011;5816;48.228;14.116;2023-06-14T07:18:57;15.50;;;14.57;;
11518;SDS011;5816;48.228;14.116;2023-06-14T07:23:59;17.17;;;15.70;;
11518;SDS011;5816;48.228;14.116;2023-06-14T07:29:02;16.27;;;15.03;;
11518;SDS011;5816;48.228;14.116;2023-06-14T07:34:04;15.20;;;14.20;;
11518;SDS011;5816;48.228;14.116;2023-06-14T07:39:06;15.43;;;14.37;;
11518;SDS011;5816;48.228;14.116;2023-06-14T07:44:08;16.40;;;15.20;;
11518;SDS011;5816;48.228;14.116;2023-06-14T07:49:12;16.37;;;15.37;;
11518;SDS011;5816;48.228;14.116;2023-06-14T07:54:14;16.30;;;15.17;;
11518;SDS011;5816;48.228;14.116;2023-06-14T07:59:16;14.80;;;13.90;;
11518;SDS011;5816;48.228;14.116;2023-06-14T08:04:18;15.50;;;14.33;;
11518;SDS011;5816;48.228;14.116;2023-06-14T08:09:20;15.80;;;14.80;;
11518;SDS011;5816;48.228;14.116;2023-06-14T08:14:22;15.20;;;14.30;;
11518;SDS011;5816;48.228;14.116;2023-06-14T08:19:24;15.97;;;14.83;;
11518;SDS011;5816;48.228;14.116;2023-06-14T08:24:26;15.20;;;14.20;;
11518;SDS011;5816;48.228;14.116;2023-06-14T08:29:28;15.90;;;14.70;;
11518;SDS011;5816;48.228;14.116;2023-06-14T08:34:33;15.23;;;14.10;;
11518;SDS011;5816;48.228;14.116;2023-06-14T08:39:35;15.77;;;14.77;;
11518;SDS011;5816;48.228;14.116;2023-06-14T08:44:36;15.97;;;14.80;;
11518;SDS011;5816;48.228;14.116;2023-06-14T08:49:38;16.13;;;15.00;;
11518;SDS011;5816;48.228;14.116;2023-06-14T08:54:43;16.30;;;15.20;;
11518;SDS011;5816;48.228;14.116;2023-06-14T08:59:47;16.07;;;14.80;;
11518;SDS011;5816;48.228;14.116;2023-06-14T09:04:55;16.90;;;15.60;;
11518;SDS011;5816;48.228;14.116;2023-06-14T09:10:06;16.03;;;15.03;;
11518;SDS011;5816;48.228;14.116;2023-06-14T09:15:09;16.47;;;15.27;;
11518;SDS011;5816;48.228;14.116;2023-06-14T09:20:11;16.13;;;15.13;;
11518;SDS011;5816;48.228;14.116;2023-06-14T09:25:21;16.10;;;15.10;;
11518;SDS011;5816;48.228;14.116;2023-06-14T09:30:39;16.20;;;15.10;;
11518;SDS011;5816;48.228;14.116;2023-06-14T09:35:42;16.67;;;15.23;;
11518;SDS011;5816;48.228;14.116;2023-06-14T09:40:47;16.23;;;15.13;;
11518;SDS011;5816;48.228;14.116;2023-06-14T09:45:48;17.00;;;15.37;;
11518;SDS011;5816;48.228;14.116;2023-06-14T09:50:52;16.93;;;15.73;;
11518;SDS011;5816;48.228;14.116;2023-06-14T09:56:00;16.33;;;15.40;;
11518;SDS011;5816;48.228;14.116;2023-06-14T10:01:02;16.57;;;15.57;;
11518;SDS011;5816;48.228;14.116;2023-06-14T10:06:07;16.03;;;14.93;;
11518;SDS011;5816;48.228;14.116;2023-06-14T10:11:11;15.43;;;14.33;;
11518;SDS011;5816;48.228;14.116;2023-06-14T10:21:46;16.77;;;15.53;;
11518;SDS011;5816;48.228;14.116;2023-06-14T10:26:58;16.23;;;15.13;;
11518;SDS011;5816;48.228;14.116;2023-06-14T10:32:03;16.73;;;15.83;;
11518;SDS011;5816;48.228;14.116;2023-06-14T10:37:06;17.03;;;15.97;;
11518;SDS011;5816;48.228;14.116;2023-06-14T10:42:13;16.37;;;15.30;;
11518;SDS011;5816;48.228;14.116;2023-06-14T10:47:23;16.10;;;14.93;;
11518;SDS011;5816;48.228;14.116;2023-06-14T10:52:29;17.07;;;15.83;;
11518;SDS011;5816;48.228;14.116;2023-06-14T10:57:37;16.20;;;15.17;;
11518;SDS011;5816;48.228;14.116;2023-06-14T11:14:05;16.63;;;15.60;;
11518;SDS011;5816;48.228;14.116;2023-06-14T11:19:07;17.63;;;16.33;;
11518;SDS011;5816;48.228;14.116;2023-06-14T11:24:10;17.33;;;16.17;;
11518;SDS011;5816;48.228;14.116;2023-06-14T11:29:14;16.80;;;15.70;;
11518;SDS011;5816;48.228;14.116;2023-06-14T11:34:18;16.50;;;15.40;;
11518;SDS011;5816;48.228;14.116;2023-06-14T11:39:23;16.50;;;15.50;;
11518;SDS011;5816;48.228;14.116;2023-06-14T11:44:26;16.43;;;15.43;;
11518;SDS011;5816;48.228;14.116;2023-06-14T11:49:28;16.10;;;15.20;;
11518;SDS011;5816;48.228;14.116;2023-06-14T11:54:30;16.67;;;15.77;;
11518;SDS011;5816;48.228;14.116;2023-06-14T11:59:39;15.43;;;14.53;;
11518;SDS011;5816;48.228;14.116;2023-06-14T12:04:42;15.80;;;14.80;;
11518;SDS011;5816;48.228;14.116;2023-06-14T12:14:55;15.23;;;14.33;;
11518;SDS011;5816;48.228;14.116;2023-06-14T12:19:57;16.30;;;15.30;;
11518;SDS011;5816;48.228;14.116;2023-06-14T12:24:59;16.70;;;15.33;;
11518;SDS011;5816;48.228;14.116;2023-06-14T12:30:03;15.10;;;14.20;;
11518;SDS011;5816;48.228;14.116;2023-06-14T12:35:06;15.33;;;14.33;;
11518;SDS011;5816;48.228;14.116;2023-06-14T12:40:08;16.10;;;14.90;;
11518;SDS011;5816;48.228;14.116;2023-06-14T12:45:13;15.80;;;14.90;;
11518;SDS011;5816;48.228;14.116;2023-06-14T12:50:15;16.67;;;15.57;;
11518;SDS011;5816;48.228;14.116;2023-06-14T12:55:17;16.33;;;15.33;;
11518;SDS011;5816;48.228;14.116;2023-06-14T13:00:20;15.63;;;14.73;;
11518;SDS011;5816;48.228;14.116;2023-06-14T13:05:23;15.93;;;14.93;;
11518;SDS011;5816;48.228;14.116;2023-06-14T13:10:25;15.77;;;14.77;;
11518;SDS011;5816;48.228;14.116;2023-06-14T13:15:28;15.73;;;14.83;;
11518;SDS011;5816;48.228;14.116;2023-06-14T13:20:30;16.90;;;15.90;;
11518;SDS011;5816;48.228;14.116;2023-06-14T13:25:32;15.77;;;14.77;;
11518;SDS011;5816;48.228;14.116;2023-06-14T13:30:34;15.13;;;14.13;;
11518;SDS011;5816;48.228;14.116;2023-06-14T13:35:36;15.47;;;14.57;;
11518;SDS011;5816;48.228;14.116;2023-06-14T13:40:38;13.60;;;12.90;;
11518;SDS011;5816;48.228;14.116;2023-06-14T13:45:39;14.80;;;13.90;;
11518;SDS011;5816;48.228;14.116;2023-06-14T13:50:41;15.00;;;14.20;;
11518;SDS011;5816;48.228;14.116;2023-06-14T13:55:43;14.55;;;13.60;;
11518;SDS011;5816;48.228;14.116;2023-06-14T14:00:45;14.73;;;13.77;;
11518;SDS011;5816;48.228;14.116;2023-06-14T14:05:47;15.02;;;14.00;;
11518;SDS011;5816;48.228;14.116;2023-06-14T14:10:49;14.52;;;13.60;;
11518;SDS011;5816;48.228;14.116;2023-06-14T14:15:50;15.35;;;14.27;;
11518;SDS011;5816;48.228;14.116;2023-06-14T14:20:53;14.90;;;13.88;;
11518;SDS011;5816;48.228;14.116;2023-06-14T14:25:55;14.40;;;13.60;;
11518;SDS011;5816;48.228;14.116;2023-06-14T14:30:56;15.48;;;14.57;;
11518;SDS011;5816;48.228;14.116;2023-06-14T14:35:58;15.07;;;14.07;;
11518;SDS011;5816;48.228;14.116;2023-06-14T14:41:05;14.63;;;13.63;;
11518;SDS011;5816;48.228;14.116;2023-06-14T14:46:06;15.70;;;14.48;;
11518;SDS011;5816;48.228;14.116;2023-06-14T14:51:09;14.43;;;13.57;;
11518;SDS011;5816;48.228;14.116;2023-06-14T14:56:11;14.38;;;13.57;;
11518;SDS011;5816;48.228;14.116;2023-06-14T15:01:13;14.77;;;13.83;;
11518;SDS011;5816;48.228;14.116;2023-06-14T15:06:17;14.93;;;14.03;;
11518;SDS011;5816;48.228;14.116;2023-06-14T15:11:19;14.30;;;13.50;;
11518;SDS011;5816;48.228;14.116;2023-06-14T15:16:21;15.93;;;14.50;;
11518;SDS011;5816;48.228;14.116;2023-06-14T15:21:23;15.32;;;14.20;;
11518;SDS011;5816;48.228;14.116;2023-06-14T15:26:26;15.80;;;14.70;;
11518;SDS011;5816;48.228;14.116;2023-06-14T15:31:29;15.05;;;14.13;;
11518;SDS011;5816;48.228;14.116;2023-06-14T15:36:30;14.48;;;13.63;;
11518;SDS011;5816;48.228;14.116;2023-06-14T15:41:33;14.77;;;13.93;;
11518;SDS011;5816;48.228;14.116;2023-06-14T15:46:35;14.95;;;13.95;;
11518;SDS011;5816;48.228;14.116;2023-06-14T15:51:37;15.00;;;14.10;;
11518;SDS011;5816;48.228;14.116;2023-06-14T15:56:39;15.50;;;14.60;;
11518;SDS011;5816;48.228;14.116;2023-06-14T16:01:41;15.20;;;14.40;;
11518;SDS011;5816;48.228;14.116;2023-06-14T16:06:43;14.90;;;13.90;;
11518;SDS011;5816;48.228;14.116;2023-06-14T16:11:45;14.63;;;13.73;;
11518;SDS011;5816;48.228;14.116;2023-06-14T16:16:47;14.50;;;13.50;;
11518;SDS011;5816;48.228;14.116;2023-06-14T16:21:52;15.60;;;14.65;;
11518;SDS011;5816;48.228;14.116;2023-06-14T16:26:54;15.55;;;14.63;;
11518;SDS011;5816;48.228;14.116;2023-06-14T16:31:56;14.60;;;13.80;;
11518;SDS011;5816;48.228;14.116;2023-06-14T16:36:58;16.27;;;15.27;;
11518;SDS011;5816;48.228;14.116;2023-06-14T16:42:00;16.17;;;15.27;;
11518;SDS011;5816;48.228;14.116;2023-06-14T16:47:06;16.10;;;14.98;;
11518;SDS011;5816;48.228;14.116;2023-06-14T16:52:09;15.82;;;14.88;;
11518;SDS011;5816;48.228;14.116;2023-06-14T16:57:13;16.20;;;14.97;;
11518;SDS011;5816;48.228;14.116;2023-06-14T17:02:15;16.48;;;15.48;;
11518;SDS011;5816;48.228;14.116;2023-06-14T17:07:16;15.90;;;14.73;;
11518;SDS011;5816;48.228;14.116;2023-06-14T17:12:18;15.88;;;14.95;;
11518;SDS011;5816;48.228;14.116;2023-06-14T17:17:21;15.37;;;14.47;;
11518;SDS011;5816;48.228;14.116;2023-06-14T17:22:26;16.33;;;15.40;;
11518;SDS011;5816;48.228;14.116;2023-06-14T17:27:31;16.17;;;15.20;;
11518;SDS011;5816;48.228;14.116;2023-06-14T17:32:33;16.27;;;15.27;;
11518;SDS011;5816;48.228;14.116;2023-06-14T17:37:35;16.27;;;15.30;;
11518;SDS011;5816;48.228;14.116;2023-06-14T17:42:37;16.53;;;15.43;;
11518;SDS011;5816;48.228;14.116;2023-06-14T17:47:39;15.73;;;14.83;;
11518;SDS011;5816;48.228;14.116;2023-06-14T17:52:41;15.60;;;14.60;;
11518;SDS011;5816;48.228;14.116;2023-06-14T17:57:43;16.70;;;15.50;;
11518;SDS011;5816;48.228;14.116;2023-06-14T18:02:45;15.53;;;14.43;;
11518;SDS011;5816;48.228;14.116;2023-06-14T18:07:50;15.47;;;14.60;;
11518;SDS011;5816;48.228;14.116;2023-06-14T18:12:56;15.70;;;14.70;;
11518;SDS011;5816;48.228;14.116;2023-06-14T18:18:07;15.97;;;15.03;;
11518;SDS011;5816;48.228;14.116;2023-06-14T18:23:09;15.70;;;14.60;;
11518;SDS011;5816;48.228;14.116;2023-06-14T18:28:13;16.23;;;15.33;;
11518;SDS011;5816;48.228;14.116;2023-06-14T18:33:16;15.70;;;14.60;;
11518;SDS011;5816;48.228;14.116;2023-06-14T18:38:21;16.30;;;15.20;;
11518;SDS011;5816;48.228;14.116;2023-06-14T18:43:29;16.10;;;15.03;;
11518;SDS011;5816;48.228;14.116;2023-06-14T18:48:36;15.03;;;14.03;;
11518;SDS011;5816;48.228;14.116;2023-06-14T18:53:38;15.17;;;14.27;;
11518;SDS011;5816;48.228;14.116;2023-06-14T18:58:40;13.57;;;12.77;;
11518;SDS011;5816;48.228;14.116;2023-06-14T19:03:42;15.00;;;13.90;;
11518;SDS011;5816;48.228;14.116;2023-06-14T19:08:44;13.97;;;13.20;;
11518;SDS011;5816;48.228;14.116;2023-06-14T19:13:48;15.00;;;14.00;;
11518;SDS011;5816;48.228;14.116;2023-06-14T19:18:52;15.27;;;14.10;;
11518;SDS011;5816;48.228;14.116;2023-06-14T19:23:54;14.90;;;13.80;;
11518;SDS011;5816;48.228;14.116;2023-06-14T19:28:57;14.50;;;13.60;;
11518;SDS011;5816;48.228;14.116;2023-06-14T19:33:59;14.33;;;13.47;;
11518;SDS011;5816;48.228;14.116;2023-06-14T19:39:01;13.73;;;13.03;;
11518;SDS011;5816;48.228;14.116;2023-06-14T19:44:03;14.80;;;13.90;;
11518;SDS011;5816;48.228;14.116;2023-06-14T19:49:05;15.50;;;14.17;;
11518;SDS011;5816;48.228;14.116;2023-06-14T19:54:07;14.57;;;13.77;;
